Time;durP1;ratioP1;P1;durP2;ratioP2;P2;SDS_P1;SDS_P2;PMS_P1;PMS_P2;Temp;Humidity;BMP_temperature;BMP_pressure;BME280_temperature;BME280_humidity;BME280_pressure;Samples;Min_cycle;Max_cycle;Signal;HPM_P1;HPM_P2
2023/08/06 00:00:22;;;;;;;6.85;6.22;;;;;;;14.89;100.00;100414.38;5042954;28;20033;-73
2023/08/06 00:02:48;;;;;;;6.85;6.25;;;;;;;14.90;100.00;100415.25;5041906;28;20061;-73
2023/08/06 00:05:13;;;;;;;5.63;5.13;;;;;;;14.89;100.00;100417.03;5042755;28;20040;-73
2023/08/06 00:07:39;;;;;;;5.32;4.93;;;;;;;14.91;100.00;100414.28;5042448;28;20033;-73
2023/08/06 00:10:05;;;;;;;4.32;4.03;;;;;;;14.91;100.00;100412.50;5024365;28;20029;-73
2023/08/06 00:12:30;;;;;;;6.43;6.00;;;;;;;14.92;100.00;100413.38;5042257;28;20103;-73
2023/08/06 00:14:55;;;;;;;7.20;6.50;;;;;;;14.92;100.00;100421.28;5042556;28;20100;-73
2023/08/06 00:17:21;;;;;;;6.32;5.82;;;;;;;14.91;100.00;100411.66;5042535;28;20048;-74
2023/08/06 00:19:47;;;;;;;6.75;6.25;;;;;;;14.91;100.00;100409.84;5042405;28;20053;-73
2023/08/06 00:22:13;;;;;;;7.97;6.40;;;;;;;14.91;100.00;100415.13;5041975;28;20075;-73
2023/08/06 00:24:38;;;;;;;8.40;7.50;;;;;;;14.91;100.00;100412.50;5041864;28;20059;-73
2023/08/06 00:27:04;;;;;;;6.55;5.97;;;;;;;14.90;100.00;100415.25;5042465;28;20032;-73
2023/08/06 00:29:29;;;;;;;6.65;6.15;;;;;;;14.90;100.00;100410.81;5042056;28;20040;-73
2023/08/06 00:31:54;;;;;;;6.75;6.18;;;;;;;14.90;100.00;100413.47;5042078;28;20052;-73
2023/08/06 00:34:20;;;;;;;6.07;5.57;;;;;;;14.91;100.00;100423.03;5041670;28;20029;-73
2023/08/06 00:36:45;;;;;;;8.07;7.28;;;;;;;14.92;100.00;100418.63;5042397;28;20025;-73
2023/08/06 00:39:11;;;;;;;8.60;7.60;;;;;;;14.90;100.00;100416.09;5042224;28;20064;-74
2023/08/06 00:41:36;;;;;;;10.30;7.28;;;;;;;14.90;100.00;100410.81;5041825;28;20108;-73
2023/08/06 00:44:02;;;;;;;5.13;4.07;;;;;;;14.91;100.00;100412.50;5042279;28;20045;-74
2023/08/06 00:46:27;;;;;;;6.10;5.60;;;;;;;14.92;100.00;100416.84;5041838;28;20037;-74
2023/08/06 00:48:53;;;;;;;7.57;6.97;;;;;;;14.93;100.00;100415.03;5041599;28;20389;-74
2023/08/06 00:51:19;;;;;;;5.22;4.82;;;;;;;14.93;100.00;100417.66;5041838;28;20041;-74
2023/08/06 00:53:45;;;;;;;5.70;5.20;;;;;;;14.93;100.00;100417.66;5041676;28;20037;-74
2023/08/06 00:56:11;;;;;;;6.13;5.53;;;;;;;14.93;100.00;100421.16;5041710;28;20033;-74
2023/08/06 00:58:36;;;;;;;5.72;5.32;;;;;;;14.94;100.00;100422.84;5041523;28;20089;-73
2023/08/06 01:04:24;;;;;;;4.93;4.53;;;;;;;14.93;100.00;100415.88;4996300;22;20107;-86
2023/08/06 01:07:27;;;;;;;7.75;7.05;;;;;;;14.93;100.00;100415.88;5022795;28;20043;-86
2023/08/06 01:10:11;;;;;;;7.28;5.90;;;;;;;14.93;100.00;100420.31;5022556;28;20235;-86
2023/08/06 01:12:55;;;;;;;5.18;4.75;;;;;;;14.93;100.00;100415.88;5037240;28;20071;-86
2023/08/06 01:15:29;;;;;;;5.65;5.10;;;;;;;14.93;100.00;100422.94;5037126;28;20247;-86
2023/08/06 01:17:54;;;;;;;4.07;3.70;;;;;;;14.94;100.00;100414.94;5037571;28;20033;-86
2023/08/06 01:20:20;;;;;;;5.75;5.35;;;;;;;14.95;100.00;100421.06;5036887;28;20346;-86
2023/08/06 01:22:46;;;;;;;7.30;6.60;;;;;;;14.95;100.00;100419.28;5036744;28;20076;-86
2023/08/06 01:25:15;;;;;;;5.70;5.30;;;;;;;14.94;100.00;100422.00;5020861;28;20362;-86
2023/08/06 01:27:49;;;;;;;5.75;5.35;;;;;;;14.94;100.00;100430.75;5054711;28;20175;-86
2023/08/06 01:30:24;;;;;;;6.53;6.00;;;;;;;14.94;100.00;100419.38;5054982;28;20036;-86
2023/08/06 01:32:53;;;;;;;6.82;6.22;;;;;;;14.95;100.00;100424.56;5037296;28;20028;-86
2023/08/06 01:35:19;;;;;;;6.18;5.57;;;;;;;14.95;100.00;100427.19;5040796;28;20317;-86
2023/08/06 01:37:46;;;;;;;5.72;5.18;;;;;;;14.96;100.00;100425.38;5041092;28;20064;-86
2023/08/06 01:40:13;;;;;;;6.07;5.57;;;;;;;14.97;100.00;100429.69;5059315;28;20324;-86
2023/08/06 01:42:39;;;;;;;6.32;5.55;;;;;;;14.96;100.00;100420.13;5040666;28;20100;-86
2023/08/06 01:45:08;;;;;;;8.00;6.95;;;;;;;14.95;100.00;100424.56;5041209;28;20028;-86
2023/08/06 01:47:34;;;;;;;6.85;6.25;;;;;;;14.96;100.00;100430.66;5040229;28;20028;-86
2023/08/06 01:50:00;;;;;;;5.63;5.22;;;;;;;14.97;100.00;100427.94;5040659;28;20051;-86
2023/08/06 01:52:26;;;;;;;6.15;5.75;;;;;;;14.96;100.00;100435.94;5041038;28;20433;-87
2023/08/06 01:54:52;;;;;;;5.82;5.40;;;;;;;14.98;100.00;100437.50;5059072;28;20028;-86
2023/08/06 01:57:18;;;;;;;5.93;5.43;;;;;;;14.98;100.00;100434.88;5040482;28;20025;-86
2023/08/06 01:59:43;;;;;;;6.57;6.07;;;;;;;14.99;100.00;100441.03;5040504;28;20043;-86
2023/08/06 02:02:09;;;;;;;6.93;6.38;;;;;;;14.98;100.00;100436.69;5040673;28;20033;-86
2023/08/06 02:04:34;;;;;;;7.10;6.50;;;;;;;15.00;100.00;100441.84;5039702;28;20091;-86
2023/08/06 02:07:00;;;;;;;7.00;6.47;;;;;;;15.01;100.00;100443.53;5040789;28;20380;-86
2023/08/06 02:09:25;;;;;;;8.77;7.93;;;;;;;15.01;100.00;100448.81;5040495;28;20021;-86
2023/08/06 02:11:51;;;;;;;8.52;7.90;;;;;;;15.00;100.00;100441.84;5040443;28;20036;-86
2023/08/06 02:14:16;;;;;;;7.72;6.97;;;;;;;14.98;100.00;100453.34;5040376;28;20052;-86
2023/08/06 02:16:42;;;;;;;7.00;6.50;;;;;;;15.00;100.00;100449.75;5040403;28;20029;-87
2023/08/06 02:19:07;;;;;;;5.80;5.40;;;;;;;15.01;100.00;100448.81;5040759;28;20028;-87
2023/08/06 02:21:33;;;;;;;6.70;6.20;;;;;;;15.00;100.00;100458.50;5058332;28;20088;-87
2023/08/06 02:23:58;;;;;;;6.22;5.72;;;;;;;15.01;100.00;100448.81;5058975;28;20029;-87
2023/08/06 02:26:24;;;;;;;6.38;5.97;;;;;;;15.02;100.00;100450.50;5040175;28;20339;-87
2023/08/06 02:28:49;;;;;;;7.32;6.32;;;;;;;15.02;100.00;100450.50;5058545;28;20236;-87
2023/08/06 02:31:14;;;;;;;7.10;6.60;;;;;;;15.01;100.00;100449.66;5059210;28;20328;-87
2023/08/06 02:33:40;;;;;;;8.10;7.40;;;;;;;15.02;100.00;100450.50;5057904;28;20370;-87
2023/08/06 02:36:05;;;;;;;6.07;5.68;;;;;;;15.02;100.00;100461.91;5046465;28;20044;-87
2023/08/06 02:38:31;;;;;;;6.70;6.20;;;;;;;15.02;100.00;100453.97;5019869;28;20112;-86
2023/08/06 02:40:57;;;;;;;6.15;5.65;;;;;;;15.01;100.00;100457.59;5051617;28;20235;-87
2023/08/06 02:43:22;;;;;;;5.00;4.50;;;;;;;15.01;100.00;100459.34;5058254;28;20093;-87
2023/08/06 02:45:48;;;;;;;4.57;4.28;;;;;;;15.01;100.00;100459.34;5038792;28;20335;-88
2023/08/06 02:48:13;;;;;;;4.80;4.47;;;;;;;15.02;100.00;100459.25;5040086;28;20025;-88
2023/08/06 02:50:40;;;;;;;4.15;3.88;;;;;;;15.00;100.00;100450.59;5057428;28;20037;-87
2023/08/06 02:53:06;;;;;;;3.17;2.97;;;;;;;15.02;100.00;100455.78;5039890;28;20066;-88
2023/08/06 02:55:32;;;;;;;3.10;2.90;;;;;;;15.00;100.00;100458.50;5057064;28;20037;-88
2023/08/06 02:57:57;;;;;;;3.15;2.10;;;;;;;15.01;100.00;100462.84;5057733;28;20048;-88
2023/08/06 03:00:23;;;;;;;2.40;2.30;;;;;;;15.01;100.00;100460.22;5057131;28;20274;-88
2023/08/06 03:02:48;;;;;;;2.10;2.00;;;;;;;15.01;100.00;100464.63;5039409;28;20343;-88
2023/08/06 03:05:13;;;;;;;1.90;1.80;;;;;;;15.00;100.00;100463.78;5057456;28;20080;-88
2023/08/06 03:07:39;;;;;;;1.52;1.42;;;;;;;14.98;100.00;100465.69;5057212;28;20043;-88
2023/08/06 03:10:05;;;;;;;1.58;0.85;;;;;;;14.96;100.00;100473.69;5039369;28;20044;-88
2023/08/06 03:12:30;;;;;;;1.20;0.73;;;;;;;14.94;100.00;100474.75;5038649;28;20080;-88
2023/08/06 03:14:55;;;;;;;2.38;0.65;;;;;;;14.89;100.00;100476.81;5039573;28;20024;-88
2023/08/06 03:17:21;;;;;;;0.90;0.50;;;;;;;14.86;100.00;100463.84;5056973;28;20039;-88
2023/08/06 03:19:46;;;;;;;1.30;0.73;;;;;;;14.82;100.00;100473.72;5057038;28;20103;-88
2023/08/06 03:22:11;;;;;;;1.02;0.75;;;;;;;14.82;100.00;100467.63;5039274;28;20029;-88
2023/08/06 03:24:37;;;;;;;0.73;0.70;;;;;;;14.80;100.00;100472.97;5056916;28;20145;-87
2023/08/06 03:27:02;;;;;;;1.55;0.85;;;;;;;14.74;100.00;100468.13;5038972;28;20024;-88
2023/08/06 03:29:28;;;;;;;1.73;0.82;;;;;;;14.74;100.00;100470.75;5056614;28;20041;-88
2023/08/06 03:31:53;;;;;;;2.75;1.00;;;;;;;14.73;100.00;100482.22;5056835;28;20351;-88
2023/08/06 03:34:18;;;;;;;0.93;0.93;;;;;;;14.74;100.00;100484.78;5038740;28;20040;-88
2023/08/06 03:36:44;;;;;;;0.63;0.63;;;;;;;14.74;100.00;100476.03;5056954;28;20327;-88
2023/08/06 03:39:09;;;;;;;2.45;1.52;;;;;;;14.73;100.00;100485.69;5057098;28;20068;-88
2023/08/06 03:41:35;;;;;;;1.63;1.52;;;;;;;14.74;100.00;100490.03;5038085;28;20032;-88
2023/08/06 03:44:02;;;;;;;2.05;1.95;;;;;;;14.74;100.00;100490.03;5039109;28;20013;-88
2023/08/06 03:46:28;;;;;;;5.25;2.40;;;;;;;14.74;100.00;100497.13;5055946;28;20029;-88
2023/08/06 03:48:53;;;;;;;3.70;2.80;;;;;;;14.73;100.00;100496.25;5038492;28;20039;-88
2023/08/06 03:51:19;;;;;;;3.20;3.00;;;;;;;14.72;100.00;100497.22;5056258;28;20036;-88
2023/08/06 03:53:44;;;;;;;3.20;3.00;;;;;;;14.73;100.00;100498.03;5038401;28;20403;-88
2023/08/06 03:56:09;;;;;;;4.88;4.47;;;;;;;14.70;100.00;100493.81;5038412;28;20040;-88
2023/08/06 03:58:35;;;;;;;5.25;4.60;;;;;;;14.70;100.00;100509.63;5037968;28;20053;-87
2023/08/06 04:01:02;;;;;;;5.70;5.18;;;;;;;14.66;100.00;100518.69;5057023;28;20043;-88
2023/08/06 04:03:28;;;;;;;4.93;4.47;;;;;;;14.64;100.00;100509.16;5037602;28;20047;-88
2023/08/06 04:05:54;;;;;;;4.35;3.80;;;;;;;14.61;100.00;100512.00;5056217;28;20344;-88
2023/08/06 04:08:20;;;;;;;6.32;3.60;;;;;;;14.57;100.00;100521.84;5055822;28;20040;-88
2023/08/06 04:10:45;;;;;;;4.55;3.35;;;;;;;14.53;100.00;100515.06;5055964;28;20254;-88
2023/08/06 04:13:10;;;;;;;6.68;3.20;;;;;;;14.53;100.00;100525.63;5038552;28;20056;-88
2023/08/06 04:15:36;;;;;;;4.20;2.60;;;;;;;14.51;100.00;100527.50;5055620;28;20099;-88
2023/08/06 04:18:01;;;;;;;6.60;3.38;;;;;;;14.50;100.00;100534.56;5056080;28;20272;-88
2023/08/06 04:20:26;;;;;;;2.63;2.42;;;;;;;14.48;100.00;100530.31;5037705;28;20038;-88
2023/08/06 04:22:54;;;;;;;3.42;2.63;;;;;;;14.47;100.00;100528.66;5056136;28;20339;-88
2023/08/06 04:25:20;;;;;;;3.27;2.40;;;;;;;14.44;100.00;100520.91;5037600;28;20164;-87
2023/08/06 04:27:47;;;;;;;2.65;2.35;;;;;;;14.44;100.00;100532.28;5055791;28;20102;-88
2023/08/06 04:30:12;;;;;;;2.67;2.28;;;;;;;14.44;100.00;100534.09;5038038;28;20035;-88
2023/08/06 04:32:39;;;;;;;2.28;2.08;;;;;;;14.43;100.00;100540.31;5055067;28;20104;-88
2023/08/06 04:35:04;;;;;;;9.27;2.90;;;;;;;14.43;100.00;100542.97;5037866;28;20035;-88
2023/08/06 04:37:30;;;;;;;4.38;2.58;;;;;;;14.40;100.00;100544.81;5055491;28;20394;-89
2023/08/06 04:39:55;;;;;;;4.47;2.47;;;;;;;14.39;100.00;100550.19;5037625;28;20037;-90
2023/08/06 04:42:21;;;;;;;3.75;2.83;;;;;;;14.38;100.00;100556.41;5037059;28;20035;-90
2023/08/06 04:44:46;;;;;;;3.10;2.67;;;;;;;14.36;100.00;100560.91;5037182;28;20063;-90
2023/08/06 04:47:11;;;;;;;2.85;2.30;;;;;;;14.35;100.00;100561.84;5037596;28;20024;-90
2023/08/06 04:49:37;;;;;;;5.65;3.08;;;;;;;14.34;100.00;100563.63;5054990;28;20107;-90
2023/08/06 04:52:03;;;;;;;4.57;2.50;;;;;;;14.34;100.00;100565.44;5037544;28;20347;-90
2023/08/06 04:54:28;;;;;;;3.80;2.20;;;;;;;14.34;100.00;100574.19;5054923;28;20255;-89
2023/08/06 04:56:53;;;;;;;4.10;2.70;;;;;;;14.32;100.00;100570.78;5037605;28;20068;-90
2023/08/06 04:59:19;;;;;;;3.10;2.55;;;;;;;14.32;100.00;100570.78;5037166;28;20029;-90
2023/08/06 05:01:44;;;;;;;3.03;2.70;;;;;;;14.32;100.00;100578.69;5055132;28;20036;-90
2023/08/06 05:04:09;;;;;;;3.42;2.80;;;;;;;14.34;100.00;100575.97;5037288;28;20324;-90
2023/08/06 05:06:35;;;;;;;4.43;2.67;;;;;;;14.34;100.00;100581.25;5036842;28;20053;-90
2023/08/06 05:09:00;;;;;;;3.92;2.85;;;;;;;14.35;100.00;100583.78;5036642;28;20104;-89
2023/08/06 05:11:26;;;;;;;5.53;3.38;;;;;;;14.35;100.00;100588.19;5036763;28;20033;-90
2023/08/06 05:13:51;;;;;;;6.40;3.40;;;;;;;14.34;100.00;100589.16;5054962;28;20056;-90
2023/08/06 05:16:16;;;;;;;5.88;3.08;;;;;;;14.34;100.00;100591.78;5036692;28;20033;-89
2023/08/06 05:18:42;;;;;;;4.50;3.67;;;;;;;14.32;100.00;100594.50;5055074;28;20098;-90
2023/08/06 05:21:07;;;;;;;3.30;3.03;;;;;;;14.33;100.00;100592.69;5054846;28;20346;-90
2023/08/06 05:23:32;;;;;;;6.10;3.67;;;;;;;14.34;100.00;100599.69;5054506;28;20045;-89
2023/08/06 05:25:58;;;;;;;4.82;3.67;;;;;;;14.33;100.00;100603.25;5055022;28;20052;-90
2023/08/06 05:28:23;;;;;;;5.85;4.65;;;;;;;14.32;100.00;100606.84;5054679;28;20045;-90
2023/08/06 05:30:49;;;;;;;5.63;3.42;;;;;;;14.33;100.00;100611.97;5054691;28;20047;-90
2023/08/06 05:33:14;;;;;;;8.05;3.50;;;;;;;14.33;100.00;100611.97;5055236;28;20130;-89
2023/08/06 05:35:41;;;;;;;10.70;3.80;;;;;;;14.34;100.00;100618.13;5036261;28;20017;-90
2023/08/06 05:38:07;;;;;;;5.70;3.28;;;;;;;14.34;100.00;100618.13;5055339;28;20531;-89
2023/08/06 05:40:35;;;;;;;3.30;3.00;;;;;;;14.34;100.00;100621.59;5054264;28;20037;-90
2023/08/06 05:43:01;;;;;;;4.07;3.10;;;;;;;14.33;100.00;100627.78;5054711;28;20032;-90
2023/08/06 05:45:26;;;;;;;8.38;3.45;;;;;;;14.34;100.00;100626.03;5054653;28;20295;-89
2023/08/06 05:47:54;;;;;;;4.68;3.05;;;;;;;14.34;100.00;100636.56;5054618;28;20047;-89
2023/08/06 05:50:19;;;;;;;6.13;2.70;;;;;;;14.35;100.00;100640.88;5054196;28;20053;-89
2023/08/06 05:52:44;;;;;;;12.70;3.15;;;;;;;14.35;100.00;100641.75;5036407;28;20331;-90
2023/08/06 05:55:10;;;;;;;4.65;2.75;;;;;;;14.35;100.00;100641.75;5054758;28;20324;-90
2023/08/06 05:57:35;;;;;;;7.25;2.70;;;;;;;14.34;100.00;100639.19;5036078;28;20044;-89
2023/08/06 06:00:02;;;;;;;4.90;2.45;;;;;;;14.36;100.00;100639.94;5036564;28;20028;-89
2023/08/06 06:02:27;;;;;;;4.57;2.30;;;;;;;14.35;100.00;100643.50;5054157;28;20044;-90
2023/08/06 06:04:53;;;;;;;3.33;1.88;;;;;;;14.36;100.00;100653.13;5052887;28;20028;-89
2023/08/06 06:07:18;;;;;;;3.40;2.20;;;;;;;14.34;100.00;100655.00;5036141;28;20033;-89
2023/08/06 06:09:43;;;;;;;2.85;1.73;;;;;;;14.34;100.00;100657.63;5036254;28;20071;-89
2023/08/06 06:12:10;;;;;;;3.72;2.10;;;;;;;14.34;100.00;100653.19;5054808;28;20048;-89
2023/08/06 06:14:35;;;;;;;5.43;1.65;;;;;;;14.34;100.00;100660.28;5053977;28;20098;-90
2023/08/06 06:17:01;;;;;;;1.77;1.55;;;;;;;14.34;100.00;100660.28;5054679;28;20367;-89
2023/08/06 06:19:26;;;;;;;4.90;1.80;;;;;;;14.35;100.00;100667.22;5053920;28;20269;-90
2023/08/06 06:21:52;;;;;;;3.15;1.30;;;;;;;14.34;100.00;100663.75;5040080;28;20143;-90
2023/08/06 06:24:18;;;;;;;2.85;1.45;;;;;;;14.35;100.00;100661.94;5057986;28;20029;-89
2023/08/06 06:26:44;;;;;;;7.63;1.50;;;;;;;14.35;100.00;100665.44;5057962;28;20052;-90
2023/08/06 06:29:09;;;;;;;2.40;1.20;;;;;;;14.36;100.00;100675.03;5058237;28;20323;-89
2023/08/06 06:31:34;;;;;;;2.58;1.40;;;;;;;14.36;100.00;100674.19;5057749;28;20044;-89
2023/08/06 06:34:00;;;;;;;1.85;1.13;;;;;;;14.37;100.00;100676.75;5057796;28;20029;-89
2023/08/06 06:36:26;;;;;;;4.25;1.27;;;;;;;14.37;100.00;100676.75;5039530;28;20380;-90
2023/08/06 06:38:51;;;;;;;2.40;1.02;;;;;;;14.38;100.00;100686.31;5057954;28;20037;-89
2023/08/06 06:41:17;;;;;;;2.20;1.05;;;;;;;14.37;100.00;100679.38;5057548;28;20063;-90
2023/08/06 06:43:42;;;;;;;1.90;1.25;;;;;;;14.37;100.00;100679.38;5057871;28;20096;-89
2023/08/06 06:46:07;;;;;;;2.70;1.25;;;;;;;14.39;100.00;100676.66;5057803;28;20033;-90
2023/08/06 06:48:33;;;;;;;1.85;1.05;;;;;;;14.40;100.00;100686.25;5039293;28;20032;-90
2023/08/06 06:50:59;;;;;;;2.50;1.42;;;;;;;14.40;100.00;100692.34;5039941;28;20076;-90
2023/08/06 06:53:28;;;;;;;4.30;1.98;;;;;;;14.40;100.00;100692.34;5039090;28;20112;-89
2023/08/06 06:55:54;;;;;;;;;;;;;;;14.39;100.00;100690.66;5040242;28;20094;-90
2023/08/06 06:58:19;;;;;;;4.43;1.20;;;;;;;14.40;100.00;100697.63;5057326;28;20231;-90
2023/08/06 07:00:46;;;;;;;2.13;1.48;;;;;;;14.41;100.00;100706.38;5057674;28;20037;-90
2023/08/06 07:03:11;;;;;;;2.67;1.70;;;;;;;14.40;100.00;100705.53;5039384;28;20287;-89
2023/08/06 07:05:36;;;;;;;2.03;1.27;;;;;;;14.42;100.00;100701.97;5056832;28;20028;-89
2023/08/06 07:08:02;;;;;;;2.67;1.45;;;;;;;14.40;100.00;100705.53;5057402;28;20048;-89
2023/08/06 07:10:27;;;;;;;3.17;1.65;;;;;;;14.42;100.00;100709.88;5056922;28;20040;-90
2023/08/06 07:12:53;;;;;;;6.75;2.33;;;;;;;14.43;100.00;100706.31;5039493;28;20041;-90
2023/08/06 07:15:18;;;;;;;3.25;1.88;;;;;;;14.43;100.00;100709.78;5038811;28;20347;-89
2023/08/06 07:17:44;;;;;;;2.42;2.08;;;;;;;14.44;100.00;100708.81;5039166;28;20052;-89
2023/08/06 07:20:10;;;;;;;5.32;2.10;;;;;;;14.46;100.00;100714.00;5039434;28;20029;-89
2023/08/06 07:22:35;;;;;;;2.03;1.75;;;;;;;14.47;100.00;100723.63;5038538;28;20067;-89
2023/08/06 07:25:01;;;;;;;4.63;2.20;;;;;;;14.49;100.00;100716.47;5039334;28;20024;-90
2023/08/06 07:27:27;;;;;;;3.85;2.08;;;;;;;14.48;100.00;100720.91;5038602;28;20063;-90
2023/08/06 07:29:52;;;;;;;5.13;2.55;;;;;;;14.50;100.00;100721.66;5057155;28;20032;-87
2023/08/06 07:32:18;;;;;;;2.83;1.98;;;;;;;14.50;100.00;100723.44;5056264;28;20059;-87
2023/08/06 07:34:43;;;;;;;4.63;2.20;;;;;;;14.50;100.00;100719.03;5038660;28;20033;-87
2023/08/06 07:37:08;;;;;;;4.03;2.00;;;;;;;14.49;100.00;100721.75;5038956;28;20029;-87
2023/08/06 07:39:34;;;;;;;4.05;1.88;;;;;;;14.51;100.00;100728.59;5038520;28;20324;-88
2023/08/06 07:41:59;;;;;;;2.38;1.90;;;;;;;14.52;100.00;100726.84;5057011;28;20246;-87
2023/08/06 07:44:25;;;;;;;3.35;1.90;;;;;;;14.53;100.00;100729.34;5056727;28;20334;-87
2023/08/06 07:46:50;;;;;;;2.78;2.03;;;;;;;14.52;100.00;100732.94;5051775;28;20189;-87
2023/08/06 07:49:15;;;;;;;3.95;2.35;;;;;;;14.53;100.00;100733.78;5051646;28;20047;-87
2023/08/06 07:51:41;;;;;;;1.90;1.60;;;;;;;14.53;100.00;100728.50;5036177;28;20028;-88
2023/08/06 07:54:06;;;;;;;1.95;1.73;;;;;;;14.53;100.00;100728.50;5037379;28;20036;-88
2023/08/06 07:56:32;;;;;;;4.35;2.10;;;;;;;14.53;100.00;100729.34;5037574;28;20064;-87
2023/08/06 07:58:57;;;;;;;2.03;1.55;;;;;;;14.53;100.00;100726.72;5038181;28;20414;-88
2023/08/06 08:01:23;;;;;;;4.13;1.80;;;;;;;14.54;100.00;100728.44;5037311;28;20383;-88
2023/08/06 08:03:48;;;;;;;5.57;2.35;;;;;;;14.53;100.00;100724.09;5037478;28;20025;-88
2023/08/06 08:06:13;;;;;;;5.72;1.85;;;;;;;14.52;100.00;100732.94;5018357;28;20053;-88
2023/08/06 08:08:39;;;;;;;2.05;1.85;;;;;;;14.53;100.00;100731.16;5017392;28;20295;-88
2023/08/06 08:11:05;;;;;;;3.47;1.90;;;;;;;14.54;100.00;100736.34;5050139;28;20111;-88
2023/08/06 08:13:31;;;;;;;3.30;2.00;;;;;;;14.55;100.00;100743.31;5036936;28;20024;-88
2023/08/06 08:15:58;;;;;;;4.47;1.83;;;;;;;14.55;100.00;100738.03;5055734;28;20040;-88
2023/08/06 08:18:23;;;;;;;3.70;2.08;;;;;;;14.55;100.00;100740.69;5055049;28;20036;-88
2023/08/06 08:20:49;;;;;;;1.77;1.67;;;;;;;14.56;100.00;100742.34;5055266;28;20409;-88
2023/08/06 08:23:14;;;;;;;2.40;1.90;;;;;;;14.57;100.00;100741.47;5055611;28;20116;-88
2023/08/06 08:25:39;;;;;;;4.50;1.95;;;;;;;14.56;100.00;100742.34;5036658;28;20025;-88
2023/08/06 08:28:05;;;;;;;2.40;1.83;;;;;;;14.56;100.00;100739.72;5055582;28;20049;-88
2023/08/06 08:30:30;;;;;;;3.78;1.85;;;;;;;14.58;100.00;100751.06;5036633;28;20108;-88
2023/08/06 08:32:56;;;;;;;2.40;1.80;;;;;;;14.59;100.00;100744.84;5055749;28;20110;-88
2023/08/06 08:35:21;;;;;;;2.45;2.25;;;;;;;14.59;100.00;100744.03;5055009;28;20040;-87
2023/08/06 08:37:47;;;;;;;1.83;1.70;;;;;;;14.60;100.00;100753.59;5036997;28;20328;-88
2023/08/06 08:40:14;;;;;;;3.33;1.92;;;;;;;14.60;100.00;100748.34;5055240;28;20045;-88
2023/08/06 08:42:39;;;;;;;5.28;2.13;;;;;;;14.62;100.00;100764.91;5035787;28;20240;-88
2023/08/06 08:45:12;;;;;;;3.97;1.83;;;;;;;14.62;100.00;100759.63;5036987;28;20021;-88
2023/08/06 08:47:38;;;;;;;2.45;1.50;;;;;;;14.63;100.00;100760.50;5054361;28;20083;-88
2023/08/06 08:50:06;;;;;;;4.38;1.75;;;;;;;14.63;100.00;100756.06;5055281;28;20354;-88
2023/08/06 08:52:34;;;;;;;2.88;1.77;;;;;;;14.64;100.00;100767.44;5036309;28;20310;-88
2023/08/06 08:55:01;;;;;;;2.83;1.80;;;;;;;14.65;100.00;100759.47;5055104;28;20120;-88
2023/08/06 08:57:26;;;;;;;1.85;1.75;;;;;;;14.66;100.00;100765.56;5054617;28;20045;-88
2023/08/06 08:59:52;;;;;;;3.10;1.67;;;;;;;14.66;100.00;100763.81;5054860;28;20029;-88
2023/08/06 09:02:20;;;;;;;2.15;1.50;;;;;;;14.67;100.00;100764.66;5044134;28;20186;-87
2023/08/06 09:04:46;;;;;;;;;;;;;;;14.66;100.00;100769.06;5022839;28;20063;-87
2023/08/06 09:07:17;;;;;;;2.08;1.52;;;;;;;14.69;100.00;100768.03;5034991;28;19927;-87
2023/08/06 09:09:46;;;;;;;1.60;1.50;;;;;;;14.70;100.00;100775.84;5035133;28;20039;-87
2023/08/06 09:12:16;;;;;;;3.22;1.52;;;;;;;14.74;100.00;100777.38;5035131;28;20025;-88
2023/08/06 09:14:42;;;;;;;2.92;1.45;;;;;;;14.78;100.00;100775.41;5053085;28;20040;-88
2023/08/06 09:17:08;;;;;;;4.45;1.83;;;;;;;14.82;100.00;100786.59;5035300;28;20270;-88
2023/08/06 09:19:34;;;;;;;3.47;1.67;;;;;;;14.86;100.00;100788.13;5034447;28;20029;-87
2023/08/06 09:21:59;;;;;;;3.40;1.70;;;;;;;14.88;100.00;100783.59;5035260;28;20115;-87
2023/08/06 09:24:26;;;;;;;3.30;1.70;;;;;;;14.91;100.00;100778.97;5053346;28;20078;-88
2023/08/06 09:26:52;;;;;;;2.63;1.70;;;;;;;14.95;100.00;100783.16;5034690;28;20064;-88
2023/08/06 09:29:17;;;;;;;3.17;1.65;;;;;;;14.97;100.00;100788.31;5052680;28;20328;-87
2023/08/06 09:31:48;;;;;;;2.38;1.50;;;;;;;14.98;100.00;100787.38;5034716;28;20338;-87
2023/08/06 09:34:18;;;;;;;2.42;1.52;;;;;;;14.98;100.00;100787.38;5034781;28;20033;-87
2023/08/06 09:36:48;;;;;;;1.35;1.25;;;;;;;15.01;99.92;100789.84;5034841;28;20044;-88
2023/08/06 09:39:15;;;;;;;1.90;1.58;;;;;;;15.02;100.00;100799.44;5053065;28;20339;-88
2023/08/06 09:41:41;;;;;;;2.85;1.30;;;;;;;15.05;100.00;100806.34;5034238;28;20036;-87
2023/08/06 09:44:18;;;;;;;6.57;1.33;;;;;;;15.07;100.00;100805.28;5053386;28;20094;-88
2023/08/06 09:46:52;;;;;;;2.13;1.45;;;;;;;15.08;100.00;100811.41;5052638;28;20037;-88
2023/08/06 09:49:26;;;;;;;2.03;1.55;;;;;;;15.11;100.00;100803.31;5034163;28;20043;-87
2023/08/06 09:51:53;;;;;;;3.67;1.60;;;;;;;15.12;99.96;100820.84;5052408;28;20029;-87
2023/08/06 09:54:19;;;;;;;2.20;1.42;;;;;;;15.11;98.32;100814.72;5053445;28;20534;-87
2023/08/06 09:56:44;;;;;;;1.67;1.30;;;;;;;15.14;98.62;100814.53;5038574;28;20032;-87
2023/08/06 09:59:11;;;;;;;2.20;1.52;;;;;;;15.16;99.43;100825.84;5056648;28;20044;-90
2023/08/06 10:01:37;;;;;;;2.15;1.40;;;;;;;15.18;99.57;100825.75;5034603;28;20025;-89
2023/08/06 10:04:11;;;;;;;1.42;1.20;;;;;;;15.18;99.49;100827.56;5056681;28;20491;-90
2023/08/06 10:06:43;;;;;;;2.17;1.23;;;;;;;15.16;96.94;100836.41;5038660;28;20049;-89
2023/08/06 10:09:09;;;;;;;1.73;1.30;;;;;;;15.18;96.86;100836.31;5004220;28;20136;-89
2023/08/06 10:11:36;;;;;;;1.75;1.50;;;;;;;15.20;97.50;100838.84;5029288;28;20398;-89
2023/08/06 10:14:17;;;;;;;1.80;1.30;;;;;;;15.22;97.68;100843.09;5037662;28;20029;-89
2023/08/06 10:16:45;;;;;;;2.10;1.10;;;;;;;15.22;97.31;100850.16;5038676;28;20359;-91
2023/08/06 10:19:19;;;;;;;1.98;1.20;;;;;;;15.23;97.33;100846.59;5049900;28;20041;-90
2023/08/06 10:22:12;;;;;;;2.78;1.10;;;;;;;15.24;96.99;100849.13;5054939;28;20327;-89
2023/08/06 10:25:04;;;;;;;1.35;1.13;;;;;;;15.25;97.86;100848.19;5023612;28;20023;-90
2023/08/06 10:27:40;;;;;;;1.88;1.25;;;;;;;15.26;97.39;100844.63;5028328;28;20040;-89
2023/08/06 10:30:32;;;;;;;2.05;1.20;;;;;;;15.27;97.31;100850.75;5044943;28;20024;-91
2023/08/06 10:33:02;;;;;;;2.47;1.40;;;;;;;15.28;97.52;100849.78;5030126;28;20029;-88
2023/08/06 10:35:35;;;;;;;0.85;0.85;;;;;;;15.29;97.87;100852.34;5037218;28;20041;-88
2023/08/06 10:38:05;;;;;;;2.33;1.10;;;;;;;15.32;98.45;100846.03;5053769;28;20036;-89
2023/08/06 10:40:31;;;;;;;1.92;1.10;;;;;;;15.34;98.08;100852.06;5037313;28;20025;-88
2023/08/06 10:43:06;;;;;;;4.03;1.20;;;;;;;15.36;97.68;100842.25;5055472;28;20070;-91
2023/08/06 10:45:35;;;;;;;1.27;1.17;;;;;;;15.38;97.95;100839.53;5037503;28;20312;-90
2023/08/06 10:48:00;;;;;;;2.08;1.30;;;;;;;15.39;98.19;100844.72;5037675;28;20056;-90
2023/08/06 10:50:26;;;;;;;4.03;1.48;;;;;;;15.41;98.68;100852.53;5037150;28;20029;-88
2023/08/06 10:52:52;;;;;;;2.92;1.50;;;;;;;15.43;99.21;100854.16;5037140;28;20389;-88
2023/08/06 10:55:24;;;;;;;2.22;1.40;;;;;;;15.47;99.51;100852.16;5037053;28;20401;-88
2023/08/06 10:57:50;;;;;;;1.92;1.25;;;;;;;15.50;99.80;100849.34;5037432;28;20070;-88
2023/08/06 11:00:15;;;;;;;2.30;1.50;;;;;;;15.53;99.73;100849.16;5033713;28;20240;-88
2023/08/06 11:02:41;;;;;;;1.45;1.00;;;;;;;15.54;98.59;100862.25;5046231;28;20258;-88
2023/08/06 11:12:10;;;;;;;1.27;1.17;;;;;;;15.64;97.61;100861.69;5067527;22;20212;-78
2023/08/06 11:14:36;;;;;;;1.52;1.02;;;;;;;15.65;97.08;100872.16;5053014;28;20131;-75
2023/08/06 11:17:01;;;;;;;0.93;0.85;;;;;;;15.67;96.70;100875.53;5055083;28;20033;-75
2023/08/06 11:19:27;;;;;;;3.10;1.08;;;;;;;15.67;96.59;100865.00;5053862;28;20048;-75
2023/08/06 11:21:52;;;;;;;1.10;1.00;;;;;;;15.69;96.22;100864.91;5054578;28;20357;-75
2023/08/06 11:24:18;;;;;;;0.90;0.90;;;;;;;15.69;96.37;100863.09;5051342;28;20370;-75
2023/08/06 11:26:44;;;;;;;1.17;1.08;;;;;;;15.70;95.49;100861.31;5053910;28;20069;-76